createdAt,value
2019-02-10T00:00:14.115Z,4.03
2019-02-10T00:02:46.328Z,4.60
2019-02-10T00:05:18.252Z,4.23
2019-02-10T00:07:50.240Z,4.93
2019-02-10T00:10:23.165Z,4.70
2019-02-10T00:13:33.746Z,4.73
2019-02-10T00:16:15.753Z,4.93
2019-02-10T00:18:47.682Z,4.37
2019-02-10T00:21:19.597Z,4.27
2019-02-10T00:23:51.621Z,5.20
2019-02-10T00:26:23.536Z,4.53
2019-02-10T00:28:55.465Z,5.10
2019-02-10T00:31:27.377Z,4.07
2019-02-10T00:33:59.307Z,4.00
2019-02-10T00:36:33.234Z,4.30
2019-02-10T00:39:07.693Z,4.43
2019-02-10T00:41:39.623Z,4.77
2019-02-10T00:44:11.541Z,5.40
2019-02-10T00:46:43.493Z,3.57
2019-02-10T00:49:15.400Z,4.90
2019-02-10T00:51:47.606Z,4.43
2019-02-10T00:54:19.531Z,3.70
2019-02-10T00:56:51.584Z,3.53
2019-02-10T00:59:23.516Z,3.93
2019-02-10T01:01:55.426Z,4.80
2019-02-10T01:04:27.396Z,4.10
2019-02-10T01:06:59.298Z,4.40
2019-02-10T01:09:31.579Z,3.97
2019-02-10T01:12:03.638Z,4.87
2019-02-10T01:14:35.572Z,3.80
2019-02-10T01:17:07.582Z,4.17
2019-02-10T01:19:39.522Z,4.13
2019-02-10T01:22:11.493Z,3.93
2019-02-10T01:24:43.421Z,3.70
2019-02-10T01:27:15.353Z,4.17
2019-02-10T01:29:47.305Z,4.10
2019-02-10T01:32:19.284Z,3.97
2019-02-10T01:34:51.275Z,3.80
2019-02-10T01:37:23.300Z,4.77
2019-02-10T01:39:55.377Z,4.20
2019-02-10T01:42:27.301Z,3.80
2019-02-10T01:44:59.287Z,4.13
2019-02-10T01:47:31.384Z,3.63
2019-02-10T01:50:03.913Z,3.73
2019-02-10T01:52:35.889Z,4.20
2019-02-10T01:55:13.944Z,3.57
2019-02-10T01:57:46.345Z,4.47
2019-02-10T02:00:18.816Z,4.40
2019-02-10T02:02:50.820Z,5.37
2019-02-10T02:05:22.750Z,4.93
2019-02-10T02:07:54.758Z,4.40
2019-02-10T02:10:26.983Z,4.73
2019-02-10T02:12:58.896Z,4.30
2019-02-10T02:15:30.820Z,4.43
2019-02-10T02:18:02.811Z,4.30
2019-02-10T02:20:34.731Z,3.90
2019-02-10T02:23:06.895Z,4.07
2019-02-10T02:25:38.822Z,4.73
2019-02-10T02:28:10.729Z,5.27
2019-02-10T02:30:42.930Z,4.37
2019-02-10T02:33:14.846Z,4.83
2019-02-10T02:35:46.843Z,5.00
2019-02-10T02:38:18.756Z,4.03
2019-02-10T02:40:50.676Z,4.07
2019-02-10T02:43:22.592Z,4.87
2019-02-10T02:45:54.606Z,4.50
2019-02-10T02:48:26.545Z,5.37
2019-02-10T02:50:58.477Z,4.77
2019-02-10T02:53:30.395Z,3.83
2019-02-10T02:56:02.309Z,3.73
2019-02-10T02:58:34.230Z,4.20
2019-02-10T03:01:06.204Z,5.00
2019-02-10T03:03:38.200Z,4.67
2019-02-10T03:06:10.116Z,4.03
2019-02-10T03:08:42.061Z,4.03
2019-02-10T03:11:13.965Z,4.03
2019-02-10T03:13:45.900Z,4.50
2019-02-10T03:16:17.823Z,4.20
2019-02-10T03:18:53.138Z,4.73
2019-02-10T03:21:23.373Z,4.47
2019-02-10T03:23:55.361Z,3.80
2019-02-10T03:26:27.284Z,4.23
2019-02-10T03:28:59.196Z,4.23
2019-02-10T03:31:31.123Z,4.23
2019-02-10T03:34:03.046Z,4.30
2019-02-10T03:36:34.975Z,4.53
2019-02-10T03:39:07.361Z,4.80
2019-02-10T03:41:39.297Z,4.23
2019-02-10T03:44:11.213Z,5.83
2019-02-10T03:46:43.147Z,4.27
2019-02-10T03:49:15.132Z,4.03
2019-02-10T03:51:47.053Z,4.40
2019-02-10T03:54:18.983Z,4.13
2019-02-10T03:56:50.987Z,4.67
2019-02-10T03:59:23.091Z,4.73
2019-02-10T04:01:55.433Z,4.23
2019-02-10T04:04:27.373Z,5.23
2019-02-10T04:06:59.352Z,4.27
2019-02-10T04:09:31.551Z,5.20
2019-02-10T04:12:03.462Z,4.77
2019-02-10T04:14:35.407Z,4.37
2019-02-10T04:17:07.372Z,4.50
2019-02-10T04:19:39.305Z,4.00
2019-02-10T04:22:11.226Z,4.07
2019-02-10T04:24:43.149Z,3.53
2019-02-10T04:27:15.075Z,4.57
2019-02-10T04:29:47.098Z,4.77
2019-02-10T04:32:19.006Z,4.77
2019-02-10T04:34:50.942Z,4.90
2019-02-10T04:37:22.853Z,4.27
2019-02-10T04:39:54.792Z,4.07
2019-02-10T04:42:26.715Z,4.53
2019-02-10T04:44:58.644Z,3.70
2019-02-10T04:47:30.630Z,4.50
2019-02-10T04:50:02.596Z,4.27
2019-02-10T04:52:34.506Z,4.43
2019-02-10T04:55:08.278Z,3.93
2019-02-10T04:57:40.197Z,3.43
2019-02-10T05:00:12.489Z,4.30
2019-02-10T05:02:44.592Z,4.93
2019-02-10T05:05:16.604Z,4.10
2019-02-10T05:07:54.233Z,4.93
2019-02-10T05:10:22.334Z,4.33
2019-02-10T05:12:55.134Z,4.93
2019-02-10T05:15:27.215Z,4.43
2019-02-10T05:17:59.147Z,4.87
2019-02-10T05:20:31.432Z,3.70
2019-02-10T05:23:03.434Z,4.07
2019-02-10T05:25:35.345Z,4.93
2019-02-10T05:28:08.902Z,3.50
2019-02-10T05:30:40.978Z,5.67
2019-02-10T05:33:12.976Z,4.37
2019-02-10T05:35:44.971Z,3.87
2019-02-10T05:38:17.003Z,4.27
2019-02-10T05:40:48.957Z,4.00
2019-02-10T05:43:21.272Z,4.83
2019-02-10T05:45:53.777Z,3.77
2019-02-10T05:48:25.697Z,5.07
2019-02-10T05:50:57.709Z,3.90
2019-02-10T05:53:29.793Z,4.13
2019-02-10T05:56:01.790Z,4.20
2019-02-10T05:58:33.700Z,3.80
2019-02-10T06:01:55.953Z,3.67
2019-02-10T06:04:28.270Z,4.00
2019-02-10T06:07:04.558Z,3.93
2019-02-10T06:09:36.741Z,3.60
2019-02-10T06:12:08.738Z,3.60
2019-02-10T06:14:40.650Z,3.87
2019-02-10T06:17:12.579Z,4.07
2019-02-10T06:19:44.522Z,4.27
2019-02-10T06:22:16.506Z,3.80
2019-02-10T06:24:48.429Z,4.27
2019-02-10T06:27:20.353Z,4.47
2019-02-10T06:29:52.272Z,3.60
2019-02-10T06:32:24.201Z,4.10
2019-02-10T06:34:56.185Z,3.80
2019-02-10T06:37:28.131Z,3.77
2019-02-10T06:40:00.339Z,4.33
2019-02-10T06:42:32.399Z,3.87
2019-02-10T06:45:06.889Z,3.77
2019-02-10T06:47:38.901Z,3.63
2019-02-10T06:50:11.802Z,3.57
2019-02-10T06:52:43.720Z,4.67
2019-02-10T06:55:15.643Z,4.77
2019-02-10T06:57:47.561Z,3.20
2019-02-10T07:00:33.441Z,3.93
2019-02-10T07:03:33.628Z,3.20
2019-02-10T07:06:07.504Z,3.43
2019-02-10T07:08:40.915Z,3.63
2019-02-10T07:11:13.089Z,3.80
2019-02-10T07:13:52.342Z,3.60
2019-02-10T07:16:40.610Z,3.00
2019-02-10T07:20:06.978Z,3.73
2019-02-10T07:22:43.517Z,2.80
2019-02-10T07:25:20.130Z,3.40
2019-02-10T07:28:06.955Z,3.57
2019-02-10T07:31:02.804Z,2.93
2019-02-10T07:33:51.203Z,3.57
2019-02-10T07:36:33.611Z,4.07
2019-02-10T07:39:27.815Z,3.73
2019-02-10T07:42:25.200Z,4.50
2019-02-10T07:45:13.748Z,4.20
2019-02-10T07:47:58.325Z,3.60
2019-02-10T07:50:46.983Z,3.50
2019-02-10T07:53:44.458Z,3.53
2019-02-10T07:56:44.733Z,3.20
2019-02-10T07:59:36.164Z,3.37
2019-02-10T08:02:21.278Z,3.33
2019-02-10T08:05:21.988Z,3.03
2019-02-10T08:08:13.189Z,3.40
2019-02-10T08:11:16.569Z,3.23
2019-02-10T08:14:04.592Z,3.03
2019-02-10T08:17:00.649Z,3.50
2019-02-10T08:19:54.799Z,3.30
2019-02-10T08:23:05.772Z,5.03
2019-02-10T08:26:16.712Z,3.30
2019-02-10T08:29:21.764Z,4.10
2019-02-10T08:32:13.847Z,3.13
2019-02-10T08:34:59.109Z,3.47
2019-02-10T08:38:14.351Z,3.40
2019-02-10T08:41:13.480Z,3.20
2019-02-10T08:44:26.468Z,3.67
2019-02-10T08:47:14.645Z,2.87
2019-02-10T08:50:09.575Z,3.10
2019-02-10T08:52:51.940Z,3.50
2019-02-10T08:55:22.331Z,3.60
2019-02-10T08:57:54.311Z,4.20
2019-02-10T09:00:26.228Z,3.50
2019-02-10T09:02:58.206Z,3.50
2019-02-10T09:05:30.123Z,2.97
2019-02-10T09:08:02.035Z,3.20
2019-02-10T09:10:33.960Z,4.37
2019-02-10T09:13:06.154Z,4.17
2019-02-10T09:15:38.072Z,3.37
2019-02-10T09:18:09.989Z,4.10
2019-02-10T09:20:41.903Z,4.40
2019-02-10T09:23:13.888Z,4.50
2019-02-10T09:25:45.795Z,3.73
2019-02-10T09:28:17.716Z,3.67
2019-02-10T09:30:49.632Z,3.37
2019-02-10T09:33:21.554Z,3.93
2019-02-10T09:35:53.482Z,4.60
2019-02-10T09:38:25.480Z,4.13
2019-02-10T09:40:57.664Z,5.27
2019-02-10T09:43:29.590Z,3.67
2019-02-10T09:46:01.507Z,3.60
2019-02-10T09:48:33.415Z,4.23
2019-02-10T09:51:05.330Z,4.20
2019-02-10T09:53:37.244Z,3.97
2019-02-10T09:56:10.627Z,3.73
2019-02-10T09:58:42.851Z,3.20
2019-02-10T10:01:14.891Z,4.27
2019-02-10T10:03:47.179Z,3.83
2019-02-10T10:06:19.100Z,4.20
2019-02-10T10:08:51.026Z,3.93
2019-02-10T10:11:22.931Z,3.60
2019-02-10T10:13:55.134Z,3.47
2019-02-10T10:16:27.045Z,4.03
2019-02-10T10:18:59.522Z,3.43
2019-02-10T10:21:31.436Z,4.07
2019-02-10T10:24:03.422Z,3.70
2019-02-10T10:26:35.327Z,3.90
2019-02-10T10:29:07.248Z,3.80
2019-02-10T10:31:39.497Z,4.07
2019-02-10T10:34:11.750Z,3.77
2019-02-10T10:36:43.731Z,4.13
2019-02-10T10:39:15.949Z,3.80
2019-02-10T10:41:47.864Z,4.00
2019-02-10T10:44:19.801Z,3.33
2019-02-10T10:46:51.708Z,3.93
2019-02-10T10:49:23.629Z,3.63
2019-02-10T10:51:55.559Z,4.17
2019-02-10T10:54:27.516Z,4.20
2019-02-10T10:56:59.424Z,3.97
2019-02-10T10:59:31.341Z,3.30
2019-02-10T11:02:03.257Z,3.40
2019-02-10T11:04:35.165Z,3.23
2019-02-10T11:07:07.393Z,3.50
2019-02-10T11:09:39.303Z,3.70
2019-02-10T11:12:12.870Z,2.90
2019-02-10T11:14:44.859Z,3.30
2019-02-10T11:17:16.781Z,3.37
2019-02-10T11:19:48.696Z,3.53
2019-02-10T11:22:20.608Z,3.03
2019-02-10T11:24:52.538Z,2.93
2019-02-10T11:27:24.441Z,3.17
2019-02-10T11:29:56.380Z,3.47
2019-02-10T11:32:28.578Z,3.07
2019-02-10T11:35:00.512Z,3.23
2019-02-10T11:37:32.424Z,2.97
2019-02-10T11:40:07.519Z,2.40
2019-02-10T11:42:39.540Z,2.80
2019-02-10T11:45:15.965Z,2.77
2019-02-10T11:47:47.889Z,3.30
2019-02-10T11:50:20.093Z,3.40
2019-02-10T11:52:52.008Z,2.90
2019-02-10T11:55:24.281Z,3.00
2019-02-10T11:57:56.265Z,2.90
2019-02-10T12:00:28.167Z,3.37
2019-02-10T12:03:00.079Z,2.90
2019-02-10T12:05:31.985Z,2.93
2019-02-10T12:08:03.906Z,2.67
2019-02-10T12:10:35.815Z,2.67
2019-02-10T12:13:07.799Z,2.60
2019-02-10T12:15:39.699Z,2.60
2019-02-10T12:18:11.610Z,2.97
2019-02-10T12:20:43.538Z,2.73
2019-02-10T12:23:15.514Z,3.00
2019-02-10T12:25:47.428Z,2.83
2019-02-10T12:28:19.335Z,2.50
2019-02-10T12:30:51.409Z,2.13
2019-02-10T12:33:23.315Z,3.77
2019-02-10T12:35:58.256Z,2.87
2019-02-10T12:38:28.872Z,2.90
2019-02-10T12:41:00.858Z,2.53
2019-02-10T12:43:33.041Z,2.97
2019-02-10T12:46:04.941Z,3.13
2019-02-10T12:48:36.874Z,2.83
2019-02-10T12:51:08.845Z,3.10
2019-02-10T12:53:40.830Z,2.70
2019-02-10T12:56:12.730Z,2.90
2019-02-10T12:58:44.644Z,2.70
2019-02-10T13:01:16.828Z,2.80
2019-02-10T13:03:48.739Z,2.83
2019-02-10T13:06:20.733Z,2.83
2019-02-10T13:08:52.639Z,2.77
2019-02-10T13:11:24.558Z,2.83
2019-02-10T13:13:56.463Z,2.90
2019-02-10T13:16:28.380Z,2.97
2019-02-10T13:19:00.296Z,2.80
2019-02-10T13:21:32.264Z,3.30
2019-02-10T13:24:05.177Z,2.87
2019-02-10T13:26:37.180Z,2.50
2019-02-10T13:29:09.093Z,2.67
2019-02-10T13:31:41.426Z,2.70
2019-02-10T13:34:13.789Z,3.20
2019-02-10T13:36:45.695Z,3.13
2019-02-10T13:39:17.712Z,3.03
2019-02-10T13:41:47.981Z,2.83
2019-02-10T13:44:20.313Z,3.10
2019-02-10T13:46:52.242Z,3.00
2019-02-10T13:49:24.233Z,2.90
2019-02-10T13:51:56.152Z,3.23
2019-02-10T13:54:28.054Z,2.90
2019-02-10T13:56:59.988Z,2.90
2019-02-10T13:59:32.423Z,2.90
2019-02-10T14:02:04.350Z,3.00
2019-02-10T14:04:36.260Z,3.03
2019-02-10T14:07:08.177Z,3.07
2019-02-10T14:09:40.078Z,3.43
2019-02-10T14:12:11.991Z,3.30
2019-02-10T14:14:44.372Z,3.33
2019-02-10T14:17:16.270Z,2.80
2019-02-10T14:19:48.183Z,3.37
2019-02-10T14:22:20.087Z,3.03
2019-02-10T14:24:51.995Z,2.83
2019-02-10T14:27:24.038Z,2.90
2019-02-10T14:29:56.433Z,3.30
2019-02-10T14:32:28.456Z,3.20
2019-02-10T14:35:00.417Z,3.60
2019-02-10T14:37:32.362Z,3.57
2019-02-10T14:40:05.332Z,4.07
2019-02-10T14:42:37.306Z,3.77
2019-02-10T14:45:13.679Z,3.47
2019-02-10T14:47:45.732Z,3.33
2019-02-10T14:50:19.074Z,3.57
2019-02-10T14:52:50.949Z,3.10
2019-02-10T14:55:22.934Z,3.63
2019-02-10T14:57:54.862Z,3.53
2019-02-10T15:00:26.930Z,3.43
2019-02-10T15:02:58.855Z,3.67
2019-02-10T15:05:30.777Z,3.40
2019-02-10T15:08:02.714Z,3.47
2019-02-10T15:10:41.824Z,3.77
2019-02-10T15:13:08.963Z,3.70
2019-02-10T15:15:40.967Z,3.83
2019-02-10T15:18:13.607Z,3.57
2019-02-10T15:20:45.527Z,3.73
2019-02-10T15:23:17.452Z,3.73
2019-02-10T15:25:49.459Z,3.70
2019-02-10T15:28:21.392Z,3.63
2019-02-10T15:30:53.651Z,3.63
2019-02-10T15:33:25.594Z,7.53
2019-02-10T15:35:57.498Z,5.20
2019-02-10T15:38:29.410Z,4.43
2019-02-10T15:41:01.603Z,5.90
2019-02-10T15:43:33.526Z,5.80
2019-02-10T15:46:05.451Z,4.97
2019-02-10T15:48:37.370Z,3.60
2019-02-10T15:51:09.274Z,5.87
2019-02-10T15:53:41.201Z,3.93
2019-02-10T15:56:13.125Z,3.43
2019-02-10T15:58:45.598Z,3.77
2019-02-10T16:01:17.513Z,4.13
2019-02-10T16:03:49.756Z,3.60
2019-02-10T16:06:21.737Z,3.50
2019-02-10T16:08:53.638Z,3.80
2019-02-10T16:11:26.232Z,3.27
2019-02-10T16:13:58.136Z,2.67
2019-02-10T16:16:30.054Z,2.70
2019-02-10T16:19:01.962Z,2.90
2019-02-10T16:21:33.864Z,3.00
2019-02-10T16:24:05.855Z,2.50
2019-02-10T16:26:37.786Z,2.92
2019-02-10T16:29:09.694Z,2.80
2019-02-10T16:31:41.670Z,2.73
2019-02-10T16:34:14.051Z,2.40
2019-02-10T16:36:46.223Z,2.70
2019-02-10T16:39:18.141Z,2.40
2019-02-10T16:41:50.053Z,2.40
2019-02-10T16:44:22.028Z,2.47
2019-02-10T16:46:53.958Z,2.40
2019-02-10T16:49:25.864Z,2.17
2019-02-10T16:51:57.777Z,2.60
2019-02-10T16:54:29.688Z,2.63
2019-02-10T16:57:01.612Z,2.50
2019-02-10T16:59:33.605Z,2.37
2019-02-10T17:02:05.574Z,2.10
2019-02-10T17:04:37.476Z,2.63
2019-02-10T17:07:09.403Z,2.30
2019-02-10T17:09:41.574Z,2.40
2019-02-10T17:12:13.484Z,2.30
2019-02-10T17:14:45.689Z,2.40
2019-02-10T17:17:17.620Z,2.40
2019-02-10T17:19:49.594Z,2.70
2019-02-10T17:22:21.586Z,2.70
2019-02-10T17:24:53.485Z,2.80
2019-02-10T17:27:25.393Z,2.80
2019-02-10T17:29:57.307Z,2.60
2019-02-10T17:32:29.289Z,2.37
2019-02-10T17:35:01.506Z,2.63
2019-02-10T17:37:33.413Z,2.40
2019-02-10T17:40:27.774Z,2.60
2019-02-10T17:43:00.113Z,2.67
2019-02-10T17:45:32.272Z,3.00
2019-02-10T17:48:04.176Z,2.63
2019-02-10T17:50:36.535Z,2.60
2019-02-10T17:53:08.432Z,2.77
2019-02-10T17:55:40.414Z,3.30
2019-02-10T17:58:12.361Z,4.40
2019-02-10T18:00:46.069Z,3.07
2019-02-10T18:03:18.466Z,3.60
2019-02-10T18:05:50.577Z,3.47
2019-02-10T18:08:23.084Z,2.93
2019-02-10T18:10:55.410Z,2.77
2019-02-10T18:13:28.273Z,3.00
2019-02-10T18:16:01.844Z,3.10
2019-02-10T18:18:37.902Z,3.10
2019-02-10T18:21:17.195Z,3.30
2019-02-10T18:23:50.807Z,2.67
2019-02-10T18:26:30.546Z,3.17
2019-02-10T18:29:04.156Z,2.90
2019-02-10T18:31:46.408Z,3.30
2019-02-10T18:34:26.101Z,3.47
2019-02-10T18:37:11.557Z,3.27
2019-02-10T18:39:45.488Z,3.03
2019-02-10T18:42:28.409Z,3.30
2019-02-10T18:45:05.005Z,3.40
2019-02-10T18:47:41.609Z,3.20
2019-02-10T18:50:15.279Z,3.27
2019-02-10T18:52:51.737Z,3.80
2019-02-10T18:55:27.975Z,3.90
2019-02-10T19:01:01.800Z,3.60
2019-02-10T19:03:38.223Z,3.83
2019-02-10T19:06:23.648Z,3.37
2019-02-10T19:09:03.845Z,3.60
2019-02-10T19:11:35.382Z,3.53
2019-02-10T19:14:08.935Z,4.07
2019-02-10T19:16:45.122Z,3.80
2019-02-10T19:19:18.743Z,3.67
2019-02-10T19:21:52.292Z,3.80
2019-02-10T19:24:25.909Z,4.37
2019-02-10T19:27:02.515Z,4.40
2019-02-10T19:29:41.843Z,4.87
2019-02-10T19:32:31.749Z,4.87
2019-02-10T19:35:07.854Z,4.23
2019-02-10T19:37:44.327Z,4.20
2019-02-10T19:40:23.599Z,4.30
2019-02-10T19:43:03.062Z,5.17
2019-02-10T19:45:55.284Z,4.23
2019-02-10T19:48:41.049Z,4.70
2019-02-10T19:51:20.584Z,4.43
2019-02-10T19:54:06.312Z,4.60
2019-02-10T19:56:48.884Z,4.37
2019-02-10T19:59:22.419Z,4.20
2019-02-10T20:01:59.340Z,4.23
2019-02-10T20:04:41.659Z,3.83
2019-02-10T20:07:15.193Z,3.53
2019-02-10T20:09:51.678Z,3.50
2019-02-10T20:12:35.447Z,3.50
2019-02-10T20:15:11.794Z,3.53
2019-02-10T20:17:57.555Z,3.57
2019-02-10T20:20:31.122Z,3.50
2019-02-10T20:23:10.441Z,3.57
2019-02-10T20:25:59.309Z,3.57
2019-02-10T20:28:49.190Z,3.13
2019-02-10T20:31:22.760Z,2.80
2019-02-10T20:34:05.369Z,3.30
2019-02-10T20:36:50.937Z,3.70
2019-02-10T20:39:30.234Z,3.43
2019-02-10T20:42:18.830Z,3.23
2019-02-10T20:45:07.330Z,3.53
2019-02-10T20:47:50.196Z,3.23
2019-02-10T20:50:32.449Z,3.60
2019-02-10T20:53:06.309Z,3.40
2019-02-10T20:55:48.978Z,3.20
2019-02-10T20:58:28.760Z,3.53
2019-02-10T21:01:20.603Z,3.40
2019-02-10T21:04:10.329Z,3.50
2019-02-10T21:06:44.340Z,3.43
2019-02-10T21:09:21.012Z,3.23
2019-02-10T21:12:00.660Z,3.17
2019-02-10T21:14:34.210Z,2.80
2019-02-10T21:17:22.750Z,2.47
2019-02-10T21:19:59.547Z,2.47
2019-02-10T21:22:42.669Z,2.40
2019-02-10T21:25:25.169Z,2.47
2019-02-10T21:28:07.677Z,1.97
2019-02-10T21:30:57.642Z,2.10
2019-02-10T21:33:43.347Z,2.00
2019-02-10T21:36:28.907Z,2.20
2019-02-10T21:39:18.611Z,2.60
2019-02-10T21:41:52.144Z,2.10
2019-02-10T21:44:25.716Z,2.80
2019-02-10T21:47:08.498Z,2.30
2019-02-10T21:49:40.414Z,2.33
2019-02-10T21:52:12.391Z,2.73
2019-02-10T21:54:44.302Z,2.70
2019-02-10T21:57:16.287Z,2.80
2019-02-10T21:59:48.187Z,2.97
2019-02-10T22:02:20.165Z,3.00
2019-02-10T22:04:52.063Z,2.97
2019-02-10T22:07:23.978Z,3.10
2019-02-10T22:09:55.896Z,3.20
2019-02-10T22:12:27.809Z,3.20
2019-02-10T22:15:00.285Z,3.17
2019-02-10T22:17:32.201Z,4.10
2019-02-10T22:20:09.203Z,2.33
2019-02-10T22:22:41.365Z,2.03
2019-02-10T22:25:13.643Z,2.20
2019-02-10T22:27:45.581Z,1.90
2019-02-10T22:30:18.082Z,2.13
2019-02-10T22:32:49.978Z,2.27
2019-02-10T22:35:21.895Z,2.30
2019-02-10T22:37:53.814Z,1.90
2019-02-10T22:40:25.715Z,1.90
2019-02-10T22:42:57.659Z,1.47
2019-02-10T22:45:29.562Z,1.80
2019-02-10T22:48:01.821Z,1.90
2019-02-10T22:50:33.717Z,2.03
2019-02-10T22:53:05.653Z,2.10
2019-02-10T22:55:37.913Z,2.00
2019-02-10T22:58:09.865Z,2.13
2019-02-10T23:00:53.886Z,2.10
2019-02-10T23:03:25.824Z,2.40
2019-02-10T23:05:57.740Z,2.10
2019-02-10T23:08:29.646Z,1.80
2019-02-10T23:11:01.641Z,1.87
2019-02-10T23:13:33.545Z,1.90
2019-02-10T23:16:05.814Z,1.90
2019-02-10T23:18:37.706Z,1.63
2019-02-10T23:21:09.629Z,2.30
2019-02-10T23:23:41.604Z,2.67
2019-02-10T23:26:13.508Z,1.83
2019-02-10T23:28:45.503Z,2.60
2019-02-10T23:31:17.413Z,2.43
2019-02-10T23:33:49.667Z,2.20
2019-02-10T23:36:21.930Z,2.17
2019-02-10T23:38:53.848Z,2.13
2019-02-10T23:41:25.815Z,2.67
2019-02-10T23:43:57.729Z,3.57
2019-02-10T23:46:29.681Z,3.37
2019-02-10T23:49:01.644Z,3.00
2019-02-10T23:51:33.536Z,2.67
2019-02-10T23:54:05.448Z,2.60
2019-02-10T23:56:37.427Z,3.50
2019-02-10T23:59:09.338Z,3.10
